sensor_id;sensor_type;location;lat;lon;timestamp;P1;durP1;ratioP1;P2;durP2;ratioP2
25365;SDS011;13315;48.274;-1.900;2024-01-06T00:02:01;40.75;;;38.65;;
25365;SDS011;13315;48.274;-1.900;2024-01-06T00:04:27;42.63;;;40.13;;
25365;SDS011;13315;48.274;-1.900;2024-01-06T00:06:53;38.03;;;36.03;;
25365;SDS011;13315;48.274;-1.900;2024-01-06T00:09:19;35.70;;;33.90;;
25365;SDS011;13315;48.274;-1.900;2024-01-06T00:11:46;31.45;;;29.85;;
25365;SDS011;13315;48.274;-1.900;2024-01-06T00:14:12;33.10;;;31.30;;
25365;SDS011;13315;48.274;-1.900;2024-01-06T00:16:38;34.38;;;32.58;;
25365;SDS011;13315;48.274;-1.900;2024-01-06T00:19:04;36.22;;;34.42;;
25365;SDS011;13315;48.274;-1.900;2024-01-06T00:21:30;38.00;;;36.08;;
25365;SDS011;13315;48.274;-1.900;2024-01-06T00:23:56;36.60;;;34.78;;
25365;SDS011;13315;48.274;-1.900;2024-01-06T00:26:23;38.25;;;36.25;;
25365;SDS011;13315;48.274;-1.900;2024-01-06T00:28:52;36.42;;;34.63;;
25365;SDS011;13315;48.274;-1.900;2024-01-06T00:31:18;36.10;;;34.20;;
25365;SDS011;13315;48.274;-1.900;2024-01-06T00:33:44;36.28;;;34.38;;
25365;SDS011;13315;48.274;-1.900;2024-01-06T00:36:10;31.48;;;29.88;;
25365;SDS011;13315;48.274;-1.900;2024-01-06T00:38:36;28.00;;;26.60;;
25365;SDS011;13315;48.274;-1.900;2024-01-06T00:41:03;26.58;;;25.17;;
25365;SDS011;13315;48.274;-1.900;2024-01-06T00:43:29;27.17;;;25.77;;
25365;SDS011;13315;48.274;-1.900;2024-01-06T00:45:55;28.30;;;26.90;;
25365;SDS011;13315;48.274;-1.900;2024-01-06T00:48:21;27.38;;;26.00;;
25365;SDS011;13315;48.274;-1.900;2024-01-06T00:50:47;25.30;;;24.00;;
25365;SDS011;13315;48.274;-1.900;2024-01-06T00:53:13;28.05;;;26.65;;
25365;SDS011;13315;48.274;-1.900;2024-01-06T00:55:39;27.80;;;26.40;;
25365;SDS011;13315;48.274;-1.900;2024-01-06T00:58:05;28.52;;;27.10;;
25365;SDS011;13315;48.274;-1.900;2024-01-06T01:00:33;32.47;;;30.38;;
25365;SDS011;13315;48.274;-1.900;2024-01-06T01:02:59;27.48;;;26.08;;
25365;SDS011;13315;48.274;-1.900;2024-01-06T01:05:25;18.23;;;17.33;;
25365;SDS011;13315;48.274;-1.900;2024-01-06T01:07:51;21.40;;;20.35;;
25365;SDS011;13315;48.274;-1.900;2024-01-06T01:10:17;21.73;;;20.63;;
25365;SDS011;13315;48.274;-1.900;2024-01-06T01:12:43;22.13;;;21.02;;
25365;SDS011;13315;48.274;-1.900;2024-01-06T01:15:09;18.95;;;18.05;;
25365;SDS011;13315;48.274;-1.900;2024-01-06T01:17:36;24.63;;;23.42;;
25365;SDS011;13315;48.274;-1.900;2024-01-06T01:20:02;17.83;;;16.92;;
25365;SDS011;13315;48.274;-1.900;2024-01-06T01:22:28;16.58;;;15.77;;
25365;SDS011;13315;48.274;-1.900;2024-01-06T01:24:54;17.10;;;16.20;;
25365;SDS011;13315;48.274;-1.900;2024-01-06T01:27:20;16.95;;;15.73;;
25365;SDS011;13315;48.274;-1.900;2024-01-06T01:29:47;17.95;;;17.05;;
25365;SDS011;13315;48.274;-1.900;2024-01-06T01:32:15;17.48;;;16.58;;
25365;SDS011;13315;48.274;-1.900;2024-01-06T01:34:41;17.73;;;16.85;;
25365;SDS011;13315;48.274;-1.900;2024-01-06T01:37:07;25.13;;;23.83;;
25365;SDS011;13315;48.274;-1.900;2024-01-06T01:39:33;24.30;;;23.00;;
25365;SDS011;13315;48.274;-1.900;2024-01-06T01:41:59;31.80;;;30.20;;
25365;SDS011;13315;48.274;-1.900;2024-01-06T01:44:25;27.60;;;26.20;;
25365;SDS011;13315;48.274;-1.900;2024-01-06T01:46:51;23.20;;;22.08;;
25365;SDS011;13315;48.274;-1.900;2024-01-06T01:49:17;27.63;;;25.92;;
25365;SDS011;13315;48.274;-1.900;2024-01-06T01:51:44;22.10;;;20.90;;
25365;SDS011;13315;48.274;-1.900;2024-01-06T01:54:10;20.98;;;19.92;;
25365;SDS011;13315;48.274;-1.900;2024-01-06T01:56:36;24.95;;;23.65;;
25365;SDS011;13315;48.274;-1.900;2024-01-06T01:59:05;29.58;;;28.08;;
25365;SDS011;13315;48.274;-1.900;2024-01-06T02:01:32;35.58;;;33.78;;
25365;SDS011;13315;48.274;-1.900;2024-01-06T02:03:58;33.90;;;32.10;;
25365;SDS011;13315;48.274;-1.900;2024-01-06T02:06:24;30.92;;;29.33;;
25365;SDS011;13315;48.274;-1.900;2024-01-06T02:08:51;33.95;;;32.25;;
25365;SDS011;13315;48.274;-1.900;2024-01-06T02:11:17;41.50;;;39.40;;
25365;SDS011;13315;48.274;-1.900;2024-01-06T02:13:43;42.90;;;40.72;;
25365;SDS011;13315;48.274;-1.900;2024-01-06T02:16:09;46.00;;;43.67;;
25365;SDS011;13315;48.274;-1.900;2024-01-06T02:18:35;46.42;;;43.88;;
25365;SDS011;13315;48.274;-1.900;2024-01-06T02:21:02;47.75;;;45.35;;
25365;SDS011;13315;48.274;-1.900;2024-01-06T02:23:28;54.45;;;51.67;;
25365;SDS011;13315;48.274;-1.900;2024-01-06T02:25:55;49.10;;;46.60;;
25365;SDS011;13315;48.274;-1.900;2024-01-06T02:28:21;48.92;;;46.42;;
25365;SDS011;13315;48.274;-1.900;2024-01-06T02:30:47;42.78;;;40.58;;
25365;SDS011;13315;48.274;-1.900;2024-01-06T02:33:14;44.35;;;42.05;;
25365;SDS011;13315;48.274;-1.900;2024-01-06T02:35:40;44.00;;;41.72;;
25365;SDS011;13315;48.274;-1.900;2024-01-06T02:38:06;38.05;;;36.15;;
25365;SDS011;13315;48.274;-1.900;2024-01-06T02:40:33;33.50;;;31.70;;
25365;SDS011;13315;48.274;-1.900;2024-01-06T02:42:59;25.42;;;24.13;;
25365;SDS011;13315;48.274;-1.900;2024-01-06T02:45:25;25.27;;;24.02;;
25365;SDS011;13315;48.274;-1.900;2024-01-06T02:47:52;24.73;;;23.52;;
25365;SDS011;13315;48.274;-1.900;2024-01-06T02:50:18;24.00;;;22.80;;
25365;SDS011;13315;48.274;-1.900;2024-01-06T02:52:44;22.23;;;21.13;;
25365;SDS011;13315;48.274;-1.900;2024-01-06T02:55:10;19.13;;;18.23;;
25365;SDS011;13315;48.274;-1.900;2024-01-06T02:57:37;19.90;;;18.90;;
25365;SDS011;13315;48.274;-1.900;2024-01-06T03:00:03;22.70;;;21.40;;
25365;SDS011;13315;48.274;-1.900;2024-01-06T03:02:29;19.52;;;18.55;;
25365;SDS011;13315;48.274;-1.900;2024-01-06T03:04:55;22.73;;;21.60;;
25365;SDS011;13315;48.274;-1.900;2024-01-06T03:07:21;22.60;;;21.50;;
25365;SDS011;13315;48.274;-1.900;2024-01-06T03:09:47;29.45;;;27.95;;
25365;SDS011;13315;48.274;-1.900;2024-01-06T03:12:14;20.13;;;19.13;;
25365;SDS011;13315;48.274;-1.900;2024-01-06T03:14:40;26.88;;;25.58;;
25365;SDS011;13315;48.274;-1.900;2024-01-06T03:17:06;29.05;;;27.63;;
25365;SDS011;13315;48.274;-1.900;2024-01-06T03:19:35;26.40;;;25.10;;
25365;SDS011;13315;48.274;-1.900;2024-01-06T03:22:02;24.80;;;23.58;;
25365;SDS011;13315;48.274;-1.900;2024-01-06T03:24:28;22.95;;;21.85;;
25365;SDS011;13315;48.274;-1.900;2024-01-06T03:26:54;20.80;;;19.80;;
25365;SDS011;13315;48.274;-1.900;2024-01-06T03:29:20;19.75;;;18.75;;
25365;SDS011;13315;48.274;-1.900;2024-01-06T03:31:46;25.75;;;24.45;;
25365;SDS011;13315;48.274;-1.900;2024-01-06T03:34:12;16.08;;;15.27;;
25365;SDS011;13315;48.274;-1.900;2024-01-06T03:36:39;17.85;;;16.95;;
25365;SDS011;13315;48.274;-1.900;2024-01-06T03:39:05;21.55;;;20.48;;
25365;SDS011;13315;48.274;-1.900;2024-01-06T03:41:31;18.52;;;17.63;;
25365;SDS011;13315;48.274;-1.900;2024-01-06T03:43:57;29.90;;;28.40;;
25365;SDS011;13315;48.274;-1.900;2024-01-06T03:46:23;42.20;;;40.10;;
25365;SDS011;13315;48.274;-1.900;2024-01-06T03:48:50;49.45;;;46.95;;
25365;SDS011;13315;48.274;-1.900;2024-01-06T03:51:16;47.00;;;44.60;;
25365;SDS011;13315;48.274;-1.900;2024-01-06T03:53:42;45.05;;;42.75;;
25365;SDS011;13315;48.274;-1.900;2024-01-06T03:56:08;47.90;;;45.50;;
25365;SDS011;13315;48.274;-1.900;2024-01-06T03:58:34;51.20;;;48.60;;
25365;SDS011;13315;48.274;-1.900;2024-01-06T04:01:01;53.08;;;50.38;;
25365;SDS011;13315;48.274;-1.900;2024-01-06T04:03:27;44.00;;;41.80;;
25365;SDS011;13315;48.274;-1.900;2024-01-06T04:05:53;45.95;;;43.65;;
25365;SDS011;13315;48.274;-1.900;2024-01-06T04:08:19;56.17;;;53.28;;
25365;SDS011;13315;48.274;-1.900;2024-01-06T04:10:45;48.47;;;46.03;;
25365;SDS011;13315;48.274;-1.900;2024-01-06T04:13:11;50.65;;;48.05;;
25365;SDS011;13315;48.274;-1.900;2024-01-06T04:15:38;44.13;;;41.92;;
25365;SDS011;13315;48.274;-1.900;2024-01-06T04:18:04;41.25;;;39.15;;
25365;SDS011;13315;48.274;-1.900;2024-01-06T04:20:31;34.33;;;32.60;;
25365;SDS011;13315;48.274;-1.900;2024-01-06T04:22:57;33.55;;;31.85;;
25365;SDS011;13315;48.274;-1.900;2024-01-06T04:25:23;32.63;;;31.02;;
25365;SDS011;13315;48.274;-1.900;2024-01-06T04:27:49;32.08;;;30.48;;
25365;SDS011;13315;48.274;-1.900;2024-01-06T04:30:16;36.92;;;35.05;;
25365;SDS011;13315;48.274;-1.900;2024-01-06T04:32:43;39.08;;;37.08;;
25365;SDS011;13315;48.274;-1.900;2024-01-06T04:35:10;43.25;;;41.05;;
25365;SDS011;13315;48.274;-1.900;2024-01-06T04:37:36;44.30;;;42.08;;
25365;SDS011;13315;48.274;-1.900;2024-01-06T04:40:02;42.05;;;39.95;;
25365;SDS011;13315;48.274;-1.900;2024-01-06T04:42:29;47.65;;;45.25;;
25365;SDS011;13315;48.274;-1.900;2024-01-06T04:44:55;51.92;;;49.30;;
25365;SDS011;13315;48.274;-1.900;2024-01-06T04:47:21;55.17;;;52.38;;
25365;SDS011;13315;48.274;-1.900;2024-01-06T04:49:48;59.67;;;56.63;;
25365;SDS011;13315;48.274;-1.900;2024-01-06T04:52:14;58.92;;;55.92;;
25365;SDS011;13315;48.274;-1.900;2024-01-06T04:54:40;55.70;;;52.90;;
25365;SDS011;13315;48.274;-1.900;2024-01-06T04:57:06;55.40;;;51.63;;
25365;SDS011;13315;48.274;-1.900;2024-01-06T04:59:32;55.55;;;52.72;;
25365;SDS011;13315;48.274;-1.900;2024-01-06T05:01:59;64.50;;;61.20;;
25365;SDS011;13315;48.274;-1.900;2024-01-06T05:04:25;60.72;;;57.63;;
25365;SDS011;13315;48.274;-1.900;2024-01-06T05:06:51;61.08;;;57.95;;
25365;SDS011;13315;48.274;-1.900;2024-01-06T05:09:17;66.20;;;62.80;;
25365;SDS011;13315;48.274;-1.900;2024-01-06T05:11:44;62.30;;;59.13;;
25365;SDS011;13315;48.274;-1.900;2024-01-06T05:14:10;63.35;;;60.15;;
25365;SDS011;13315;48.274;-1.900;2024-01-06T05:16:36;57.65;;;54.72;;
25365;SDS011;13315;48.274;-1.900;2024-01-06T05:19:02;50.90;;;48.30;;
25365;SDS011;13315;48.274;-1.900;2024-01-06T05:21:29;55.15;;;52.35;;
25365;SDS011;13315;48.274;-1.900;2024-01-06T05:23:55;58.78;;;55.75;;
25365;SDS011;13315;48.274;-1.900;2024-01-06T05:26:21;69.05;;;65.55;;
25365;SDS011;13315;48.274;-1.900;2024-01-06T05:28:47;69.45;;;65.95;;
25365;SDS011;13315;48.274;-1.900;2024-01-06T05:31:13;65.35;;;62.05;;
25365;SDS011;13315;48.274;-1.900;2024-01-06T05:33:39;60.30;;;57.22;;
25365;SDS011;13315;48.274;-1.900;2024-01-06T05:36:06;60.10;;;57.03;;
25365;SDS011;13315;48.274;-1.900;2024-01-06T05:38:32;62.03;;;58.85;;
25365;SDS011;13315;48.274;-1.900;2024-01-06T05:40:58;58.78;;;55.78;;
25365;SDS011;13315;48.274;-1.900;2024-01-06T05:43:24;58.80;;;55.80;;
25365;SDS011;13315;48.274;-1.900;2024-01-06T05:45:50;61.72;;;58.60;;
25365;SDS011;13315;48.274;-1.900;2024-01-06T05:48:16;60.90;;;57.80;;
25365;SDS011;13315;48.274;-1.900;2024-01-06T05:50:42;60.08;;;57.00;;
25365;SDS011;13315;48.274;-1.900;2024-01-06T05:53:09;69.18;;;65.68;;
25365;SDS011;13315;48.274;-1.900;2024-01-06T05:55:35;69.13;;;65.63;;
25365;SDS011;13315;48.274;-1.900;2024-01-06T05:58:01;61.83;;;58.72;;
25365;SDS011;13315;48.274;-1.900;2024-01-06T06:00:28;65.35;;;62.05;;
25365;SDS011;13315;48.274;-1.900;2024-01-06T06:02:57;62.60;;;59.40;;
25365;SDS011;13315;48.274;-1.900;2024-01-06T06:05:23;62.97;;;59.42;;
25365;SDS011;13315;48.274;-1.900;2024-01-06T06:07:49;62.40;;;59.20;;
25365;SDS011;13315;48.274;-1.900;2024-01-06T06:10:16;55.88;;;53.08;;
25365;SDS011;13315;48.274;-1.900;2024-01-06T06:12:43;57.05;;;54.15;;
25365;SDS011;13315;48.274;-1.900;2024-01-06T06:15:09;48.00;;;45.58;;
25365;SDS011;13315;48.274;-1.900;2024-01-06T06:17:36;45.97;;;43.67;;
25365;SDS011;13315;48.274;-1.900;2024-01-06T06:20:02;45.15;;;42.85;;
25365;SDS011;13315;48.274;-1.900;2024-01-06T06:22:29;43.42;;;41.22;;
25365;SDS011;13315;48.274;-1.900;2024-01-06T06:24:58;36.10;;;34.30;;
25365;SDS011;13315;48.274;-1.900;2024-01-06T06:27:25;40.05;;;38.05;;
25365;SDS011;13315;48.274;-1.900;2024-01-06T06:29:51;38.15;;;36.25;;
25365;SDS011;13315;48.274;-1.900;2024-01-06T06:32:18;39.53;;;37.53;;
25365;SDS011;13315;48.274;-1.900;2024-01-06T06:34:44;39.10;;;37.10;;
25365;SDS011;13315;48.274;-1.900;2024-01-06T06:37:10;46.03;;;43.70;;
25365;SDS011;13315;48.274;-1.900;2024-01-06T06:39:37;45.35;;;43.05;;
25365;SDS011;13315;48.274;-1.900;2024-01-06T06:42:03;41.63;;;39.53;;
25365;SDS011;13315;48.274;-1.900;2024-01-06T06:44:29;43.58;;;41.38;;
25365;SDS011;13315;48.274;-1.900;2024-01-06T06:46:56;40.58;;;38.58;;
25365;SDS011;13315;48.274;-1.900;2024-01-06T06:49:22;46.65;;;44.28;;
25365;SDS011;13315;48.274;-1.900;2024-01-06T06:51:48;45.03;;;42.72;;
25365;SDS011;13315;48.274;-1.900;2024-01-06T06:54:15;47.08;;;44.67;;
25365;SDS011;13315;48.274;-1.900;2024-01-06T06:56:42;46.58;;;44.22;;
25365;SDS011;13315;48.274;-1.900;2024-01-06T06:59:08;38.05;;;36.15;;
25365;SDS011;13315;48.274;-1.900;2024-01-06T07:01:34;39.85;;;37.85;;
25365;SDS011;13315;48.274;-1.900;2024-01-06T07:04:01;49.15;;;46.65;;
25365;SDS011;13315;48.274;-1.900;2024-01-06T07:06:27;44.97;;;42.67;;
25365;SDS011;13315;48.274;-1.900;2024-01-06T07:08:54;57.88;;;54.88;;
25365;SDS011;13315;48.274;-1.900;2024-01-06T07:11:20;50.03;;;47.45;;
25365;SDS011;13315;48.274;-1.900;2024-01-06T07:13:46;43.75;;;41.55;;
25365;SDS011;13315;48.274;-1.900;2024-01-06T07:16:12;40.67;;;38.67;;
25365;SDS011;13315;48.274;-1.900;2024-01-06T07:18:38;35.50;;;33.42;;
25365;SDS011;13315;48.274;-1.900;2024-01-06T07:21:05;36.13;;;34.33;;
25365;SDS011;13315;48.274;-1.900;2024-01-06T07:23:34;33.95;;;32.25;;
25365;SDS011;13315;48.274;-1.900;2024-01-06T07:26:00;33.63;;;31.92;;
25365;SDS011;13315;48.274;-1.900;2024-01-06T07:28:27;41.50;;;39.40;;
25365;SDS011;13315;48.274;-1.900;2024-01-06T07:30:53;38.13;;;36.22;;
25365;SDS011;13315;48.274;-1.900;2024-01-06T07:33:20;37.50;;;35.60;;
25365;SDS011;13315;48.274;-1.900;2024-01-06T07:35:46;31.95;;;30.35;;
25365;SDS011;13315;48.274;-1.900;2024-01-06T07:38:12;50.55;;;47.95;;
25365;SDS011;13315;48.274;-1.900;2024-01-06T07:40:39;51.72;;;49.10;;
25365;SDS011;13315;48.274;-1.900;2024-01-06T07:43:05;48.08;;;45.67;;
25365;SDS011;13315;48.274;-1.900;2024-01-06T07:45:31;49.67;;;47.08;;
25365;SDS011;13315;48.274;-1.900;2024-01-06T07:47:58;54.75;;;51.95;;
25365;SDS011;13315;48.274;-1.900;2024-01-06T07:50:24;52.33;;;49.63;;
25365;SDS011;13315;48.274;-1.900;2024-01-06T07:52:50;48.50;;;46.00;;
25365;SDS011;13315;48.274;-1.900;2024-01-06T07:55:17;43.47;;;41.28;;
25365;SDS011;13315;48.274;-1.900;2024-01-06T07:57:43;44.53;;;42.28;;
25365;SDS011;13315;48.274;-1.900;2024-01-06T08:00:10;61.90;;;58.70;;
25365;SDS011;13315;48.274;-1.900;2024-01-06T08:02:39;55.75;;;52.85;;
25365;SDS011;13315;48.274;-1.900;2024-01-06T08:05:06;53.50;;;50.80;;
25365;SDS011;13315;48.274;-1.900;2024-01-06T08:07:32;55.95;;;53.05;;
25365;SDS011;13315;48.274;-1.900;2024-01-06T08:09:58;54.22;;;51.45;;
25365;SDS011;13315;48.274;-1.900;2024-01-06T08:12:25;58.13;;;55.13;;
25365;SDS011;13315;48.274;-1.900;2024-01-06T08:14:51;52.85;;;50.17;;
25365;SDS011;13315;48.274;-1.900;2024-01-06T08:17:22;53.30;;;50.60;;
25365;SDS011;13315;48.274;-1.900;2024-01-06T08:19:48;64.25;;;60.95;;
25365;SDS011;13315;48.274;-1.900;2024-01-06T08:22:14;57.05;;;54.15;;
25365;SDS011;13315;48.274;-1.900;2024-01-06T08:24:40;55.55;;;52.72;;
25365;SDS011;13315;48.274;-1.900;2024-01-06T08:27:07;54.47;;;51.67;;
25365;SDS011;13315;48.274;-1.900;2024-01-06T08:29:34;58.10;;;55.08;;
25365;SDS011;13315;48.274;-1.900;2024-01-06T08:32:00;52.72;;;50.03;;
25365;SDS011;13315;48.274;-1.900;2024-01-06T08:34:26;52.55;;;49.85;;
25365;SDS011;13315;48.274;-1.900;2024-01-06T08:36:54;49.33;;;46.83;;
25365;SDS011;13315;48.274;-1.900;2024-01-06T08:39:20;51.05;;;48.45;;
25365;SDS011;13315;48.274;-1.900;2024-01-06T08:41:47;51.53;;;48.53;;
25365;SDS011;13315;48.274;-1.900;2024-01-06T08:44:16;54.10;;;51.33;;
25365;SDS011;13315;48.274;-1.900;2024-01-06T08:46:43;54.78;;;51.78;;
25365;SDS011;13315;48.274;-1.900;2024-01-06T08:49:11;56.33;;;53.42;;
25365;SDS011;13315;48.274;-1.900;2024-01-06T08:51:39;62.30;;;59.08;;
25365;SDS011;13315;48.274;-1.900;2024-01-06T08:54:07;54.22;;;51.42;;
25365;SDS011;13315;48.274;-1.900;2024-01-06T08:56:34;49.42;;;46.92;;
25365;SDS011;13315;48.274;-1.900;2024-01-06T08:59:00;40.22;;;38.22;;
25365;SDS011;13315;48.274;-1.900;2024-01-06T09:01:28;29.20;;;27.73;;
25365;SDS011;13315;48.274;-1.900;2024-01-06T09:03:54;28.98;;;27.55;;
25365;SDS011;13315;48.274;-1.900;2024-01-06T09:06:21;25.75;;;24.45;;
25365;SDS011;13315;48.274;-1.900;2024-01-06T09:08:49;24.20;;;23.00;;
25365;SDS011;13315;48.274;-1.900;2024-01-06T09:11:15;23.17;;;22.00;;
25365;SDS011;13315;48.274;-1.900;2024-01-06T09:13:42;24.15;;;22.95;;
25365;SDS011;13315;48.274;-1.900;2024-01-06T09:16:08;25.55;;;24.25;;
25365;SDS011;13315;48.274;-1.900;2024-01-06T09:18:35;20.52;;;19.42;;
25365;SDS011;13315;48.274;-1.900;2024-01-06T09:21:03;17.65;;;16.75;;
25365;SDS011;13315;48.274;-1.900;2024-01-06T09:23:29;17.70;;;16.80;;
25365;SDS011;13315;48.274;-1.900;2024-01-06T09:25:56;12.50;;;11.90;;
25365;SDS011;13315;48.274;-1.900;2024-01-06T09:28:23;13.95;;;13.23;;
25365;SDS011;13315;48.274;-1.900;2024-01-06T09:30:52;12.32;;;11.73;;
25365;SDS011;13315;48.274;-1.900;2024-01-06T09:33:21;14.52;;;13.82;;
25365;SDS011;13315;48.274;-1.900;2024-01-06T09:35:48;14.07;;;13.38;;
25365;SDS011;13315;48.274;-1.900;2024-01-06T09:38:15;12.45;;;11.85;;
25365;SDS011;13315;48.274;-1.900;2024-01-06T09:40:43;11.73;;;11.18;;
25365;SDS011;13315;48.274;-1.900;2024-01-06T09:43:10;13.27;;;12.68;;
25365;SDS011;13315;48.274;-1.900;2024-01-06T09:45:36;15.55;;;14.75;;
25365;SDS011;13315;48.274;-1.900;2024-01-06T09:48:05;16.83;;;15.65;;
25365;SDS011;13315;48.274;-1.900;2024-01-06T09:50:34;15.80;;;14.13;;
25365;SDS011;13315;48.274;-1.900;2024-01-06T09:53:00;13.30;;;12.70;;
25365;SDS011;13315;48.274;-1.900;2024-01-06T09:55:30;13.18;;;12.38;;
25365;SDS011;13315;48.274;-1.900;2024-01-06T09:57:56;12.90;;;12.20;;
25365;SDS011;13315;48.274;-1.900;2024-01-06T10:00:22;14.07;;;13.38;;
25365;SDS011;13315;48.274;-1.900;2024-01-06T10:02:50;14.68;;;13.98;;
25365;SDS011;13315;48.274;-1.900;2024-01-06T10:05:16;15.13;;;14.23;;
25365;SDS011;13315;48.274;-1.900;2024-01-06T10:07:43;13.30;;;12.70;;
25365;SDS011;13315;48.274;-1.900;2024-01-06T10:10:09;13.00;;;12.40;;
25365;SDS011;13315;48.274;-1.900;2024-01-06T10:12:39;12.77;;;12.18;;
25365;SDS011;13315;48.274;-1.900;2024-01-06T10:15:06;14.35;;;13.55;;
25365;SDS011;13315;48.274;-1.900;2024-01-06T10:17:32;15.10;;;14.40;;
25365;SDS011;13315;48.274;-1.900;2024-01-06T10:19:59;16.10;;;15.30;;
25365;SDS011;13315;48.274;-1.900;2024-01-06T10:22:26;14.18;;;13.48;;
25365;SDS011;13315;48.274;-1.900;2024-01-06T10:24:52;15.10;;;14.07;;
25365;SDS011;13315;48.274;-1.900;2024-01-06T10:27:20;18.92;;;17.65;;
25365;SDS011;13315;48.274;-1.900;2024-01-06T10:29:47;12.60;;;12.00;;
25365;SDS011;13315;48.274;-1.900;2024-01-06T10:32:13;14.05;;;13.15;;
25365;SDS011;13315;48.274;-1.900;2024-01-06T10:34:39;12.88;;;12.27;;
25365;SDS011;13315;48.274;-1.900;2024-01-06T10:37:05;12.48;;;11.88;;
25365;SDS011;13315;48.274;-1.900;2024-01-06T10:39:31;14.30;;;13.60;;
25365;SDS011;13315;48.274;-1.900;2024-01-06T10:41:58;15.32;;;14.55;;
25365;SDS011;13315;48.274;-1.900;2024-01-06T10:44:24;15.07;;;14.38;;
25365;SDS011;13315;48.274;-1.900;2024-01-06T10:46:50;15.18;;;14.48;;
25365;SDS011;13315;48.274;-1.900;2024-01-06T10:49:17;15.93;;;15.13;;
25365;SDS011;13315;48.274;-1.900;2024-01-06T10:51:48;14.50;;;13.80;;
25365;SDS011;13315;48.274;-1.900;2024-01-06T10:54:15;15.55;;;14.80;;
25365;SDS011;13315;48.274;-1.900;2024-01-06T10:56:43;16.73;;;15.93;;
25365;SDS011;13315;48.274;-1.900;2024-01-06T10:59:11;16.58;;;15.77;;
25365;SDS011;13315;48.274;-1.900;2024-01-06T11:01:38;14.57;;;13.88;;
25365;SDS011;13315;48.274;-1.900;2024-01-06T11:04:04;15.13;;;14.43;;
25365;SDS011;13315;48.274;-1.900;2024-01-06T11:06:31;15.02;;;14.32;;
25365;SDS011;13315;48.274;-1.900;2024-01-06T11:11:24;16.77;;;14.35;;
25365;SDS011;13315;48.274;-1.900;2024-01-06T11:13:51;15.18;;;14.38;;
25365;SDS011;13315;48.274;-1.900;2024-01-06T11:16:33;15.23;;;14.43;;
25365;SDS011;13315;48.274;-1.900;2024-01-06T11:18:59;15.43;;;14.73;;
25365;SDS011;13315;48.274;-1.900;2024-01-06T11:21:25;16.08;;;15.27;;
25365;SDS011;13315;48.274;-1.900;2024-01-06T11:24:08;15.00;;;14.30;;
25365;SDS011;13315;48.274;-1.900;2024-01-06T11:26:38;17.60;;;16.25;;
25365;SDS011;13315;48.274;-1.900;2024-01-06T11:29:05;14.27;;;13.57;;
25365;SDS011;13315;48.274;-1.900;2024-01-06T11:31:31;14.10;;;13.27;;
25365;SDS011;13315;48.274;-1.900;2024-01-06T11:33:58;14.30;;;13.60;;
25365;SDS011;13315;48.274;-1.900;2024-01-06T11:36:37;13.35;;;12.75;;
25365;SDS011;13315;48.274;-1.900;2024-01-06T11:39:05;11.65;;;11.15;;
25365;SDS011;13315;48.274;-1.900;2024-01-06T11:41:50;12.45;;;11.82;;
25365;SDS011;13315;48.274;-1.900;2024-01-06T11:44:22;12.57;;;11.98;;
25365;SDS011;13315;48.274;-1.900;2024-01-06T11:46:48;11.85;;;11.27;;
25365;SDS011;13315;48.274;-1.900;2024-01-06T11:49:15;12.70;;;11.90;;
25365;SDS011;13315;48.274;-1.900;2024-01-06T11:51:41;14.02;;;10.80;;
25365;SDS011;13315;48.274;-1.900;2024-01-06T11:54:08;11.40;;;10.90;;
25365;SDS011;13315;48.274;-1.900;2024-01-06T11:56:36;11.65;;;11.05;;
25365;SDS011;13315;48.274;-1.900;2024-01-06T11:59:02;10.85;;;10.25;;
25365;SDS011;13315;48.274;-1.900;2024-01-06T12:01:28;11.18;;;10.50;;
25365;SDS011;13315;48.274;-1.900;2024-01-06T12:04:01;9.35;;;8.95;;
25365;SDS011;13315;48.274;-1.900;2024-01-06T12:06:30;10.10;;;9.60;;
25365;SDS011;13315;48.274;-1.900;2024-01-06T12:09:05;10.10;;;9.60;;
25365;SDS011;13315;48.274;-1.900;2024-01-06T12:11:31;8.90;;;8.30;;
25365;SDS011;13315;48.274;-1.900;2024-01-06T12:13:57;9.20;;;8.70;;
25365;SDS011;13315;48.274;-1.900;2024-01-06T12:16:23;8.95;;;8.50;;
25365;SDS011;13315;48.274;-1.900;2024-01-06T12:18:53;9.20;;;8.80;;
25365;SDS011;13315;48.274;-1.900;2024-01-06T12:21:24;8.18;;;7.50;;
25365;SDS011;13315;48.274;-1.900;2024-01-06T12:23:50;9.38;;;7.97;;
25365;SDS011;13315;48.274;-1.900;2024-01-06T12:26:17;8.82;;;8.27;;
25365;SDS011;13315;48.274;-1.900;2024-01-06T12:28:47;7.40;;;7.00;;
25365;SDS011;13315;48.274;-1.900;2024-01-06T12:31:13;8.50;;;7.80;;
25365;SDS011;13315;48.274;-1.900;2024-01-06T12:33:39;7.45;;;7.15;;
25365;SDS011;13315;48.274;-1.900;2024-01-06T12:36:08;7.32;;;7.03;;
25365;SDS011;13315;48.274;-1.900;2024-01-06T12:38:36;8.05;;;7.63;;
25365;SDS011;13315;48.274;-1.900;2024-01-06T12:41:03;7.50;;;7.20;;
25365;SDS011;13315;48.274;-1.900;2024-01-06T12:43:30;6.20;;;5.90;;
25365;SDS011;13315;48.274;-1.900;2024-01-06T12:45:56;6.38;;;6.07;;
25365;SDS011;13315;48.274;-1.900;2024-01-06T12:48:23;6.40;;;6.10;;
25365;SDS011;13315;48.274;-1.900;2024-01-06T12:50:49;6.05;;;5.75;;
25365;SDS011;13315;48.274;-1.900;2024-01-06T12:53:15;5.90;;;5.60;;
25365;SDS011;13315;48.274;-1.900;2024-01-06T12:55:42;5.90;;;5.60;;
25365;SDS011;13315;48.274;-1.900;2024-01-06T12:58:09;5.57;;;5.32;;
25365;SDS011;13315;48.274;-1.900;2024-01-06T13:00:35;8.70;;;6.20;;
25365;SDS011;13315;48.274;-1.900;2024-01-06T13:03:01;6.22;;;5.93;;
25365;SDS011;13315;48.274;-1.900;2024-01-06T13:05:27;7.10;;;6.55;;
25365;SDS011;13315;48.274;-1.900;2024-01-06T13:07:53;5.60;;;5.40;;
25365;SDS011;13315;48.274;-1.900;2024-01-06T13:10:19;4.68;;;4.47;;
25365;SDS011;13315;48.274;-1.900;2024-01-06T13:12:45;6.28;;;5.68;;
25365;SDS011;13315;48.274;-1.900;2024-01-06T13:15:11;4.80;;;4.60;;
25365;SDS011;13315;48.274;-1.900;2024-01-06T13:17:37;5.53;;;5.25;;
25365;SDS011;13315;48.274;-1.900;2024-01-06T13:20:04;5.40;;;5.20;;
25365;SDS011;13315;48.274;-1.900;2024-01-06T13:22:30;6.47;;;5.03;;
25365;SDS011;13315;48.274;-1.900;2024-01-06T13:24:57;5.50;;;5.30;;
25365;SDS011;13315;48.274;-1.900;2024-01-06T13:27:24;5.30;;;5.10;;
25365;SDS011;13315;48.274;-1.900;2024-01-06T13:29:52;8.02;;;4.75;;
25365;SDS011;13315;48.274;-1.900;2024-01-06T13:32:18;4.82;;;4.63;;
25365;SDS011;13315;48.274;-1.900;2024-01-06T13:34:44;4.63;;;4.43;;
25365;SDS011;13315;48.274;-1.900;2024-01-06T13:37:10;4.43;;;4.22;;
25365;SDS011;13315;48.274;-1.900;2024-01-06T13:39:36;4.38;;;4.18;;
25365;SDS011;13315;48.274;-1.900;2024-01-06T13:42:03;4.22;;;4.03;;
25365;SDS011;13315;48.274;-1.900;2024-01-06T13:44:29;4.85;;;4.20;;
25365;SDS011;13315;48.274;-1.900;2024-01-06T13:46:55;4.38;;;4.18;;
25365;SDS011;13315;48.274;-1.900;2024-01-06T13:49:22;4.43;;;4.22;;
25365;SDS011;13315;48.274;-1.900;2024-01-06T13:51:51;3.50;;;3.40;;
25365;SDS011;13315;48.274;-1.900;2024-01-06T13:54:18;20.67;;;4.75;;
25365;SDS011;13315;48.274;-1.900;2024-01-06T13:56:44;3.20;;;3.10;;
25365;SDS011;13315;48.274;-1.900;2024-01-06T13:59:11;3.38;;;3.28;;
25365;SDS011;13315;48.274;-1.900;2024-01-06T14:01:37;3.55;;;3.45;;
25365;SDS011;13315;48.274;-1.900;2024-01-06T14:04:03;3.20;;;3.10;;
25365;SDS011;13315;48.274;-1.900;2024-01-06T14:06:30;3.10;;;3.00;;
25365;SDS011;13315;48.274;-1.900;2024-01-06T14:08:57;3.00;;;2.90;;
25365;SDS011;13315;48.274;-1.900;2024-01-06T14:11:23;2.80;;;2.70;;
25365;SDS011;13315;48.274;-1.900;2024-01-06T14:13:51;4.28;;;3.00;;